sensor_id;sensor_type;location;lat;lon;timestamp;P1;durP1;ratioP1;P2;durP2;ratioP2
18360;SDS011;9308;48.550;9.108;2023-09-30T00:00:14;9.47;;;4.87;;
18360;SDS011;9308;48.550;9.108;2023-09-30T00:02:40;9.83;;;5.67;;
18360;SDS011;9308;48.550;9.108;2023-09-30T00:05:05;8.77;;;5.30;;
18360;SDS011;9308;48.550;9.108;2023-09-30T00:07:31;12.90;;;7.27;;
18360;SDS011;9308;48.550;9.108;2023-09-30T00:09:56;9.80;;;6.17;;
18360;SDS011;9308;48.550;9.108;2023-09-30T00:12:22;9.33;;;6.30;;
18360;SDS011;9308;48.550;9.108;2023-09-30T00:14:47;9.87;;;5.37;;
18360;SDS011;9308;48.550;9.108;2023-09-30T00:17:13;9.90;;;5.50;;
18360;SDS011;9308;48.550;9.108;2023-09-30T00:19:38;10.10;;;5.83;;
18360;SDS011;9308;48.550;9.108;2023-09-30T00:22:04;9.23;;;6.07;;
18360;SDS011;9308;48.550;9.108;2023-09-30T00:24:29;9.77;;;5.77;;
18360;SDS011;9308;48.550;9.108;2023-09-30T00:26:55;7.90;;;5.37;;
18360;SDS011;9308;48.550;9.108;2023-09-30T00:29:21;9.47;;;6.03;;
18360;SDS011;9308;48.550;9.108;2023-09-30T00:31:46;6.93;;;5.33;;
18360;SDS011;9308;48.550;9.108;2023-09-30T00:34:12;7.30;;;5.03;;
18360;SDS011;9308;48.550;9.108;2023-09-30T00:36:38;8.93;;;5.33;;
18360;SDS011;9308;48.550;9.108;2023-09-30T00:39:03;7.17;;;4.83;;
18360;SDS011;9308;48.550;9.108;2023-09-30T00:41:29;9.77;;;4.93;;
18360;SDS011;9308;48.550;9.108;2023-09-30T00:43:54;7.93;;;5.10;;
18360;SDS011;9308;48.550;9.108;2023-09-30T00:48:55;8.90;;;4.90;;
18360;SDS011;9308;48.550;9.108;2023-09-30T00:51:22;9.83;;;5.50;;
18360;SDS011;9308;48.550;9.108;2023-09-30T00:53:48;9.00;;;5.17;;
18360;SDS011;9308;48.550;9.108;2023-09-30T00:56:15;7.07;;;4.97;;
18360;SDS011;9308;48.550;9.108;2023-09-30T00:58:41;6.93;;;4.70;;
18360;SDS011;9308;48.550;9.108;2023-09-30T01:01:06;9.03;;;5.67;;
18360;SDS011;9308;48.550;9.108;2023-09-30T01:03:32;11.90;;;6.03;;
18360;SDS011;9308;48.550;9.108;2023-09-30T01:05:58;8.40;;;5.33;;
18360;SDS011;9308;48.550;9.108;2023-09-30T01:08:24;10.27;;;6.07;;
18360;SDS011;9308;48.550;9.108;2023-09-30T01:10:49;9.73;;;6.03;;
18360;SDS011;9308;48.550;9.108;2023-09-30T01:13:15;10.03;;;5.13;;
18360;SDS011;9308;48.550;9.108;2023-09-30T01:15:41;10.10;;;6.23;;
18360;SDS011;9308;48.550;9.108;2023-09-30T01:18:06;11.13;;;5.77;;
18360;SDS011;9308;48.550;9.108;2023-09-30T01:20:32;9.70;;;5.67;;
18360;SDS011;9308;48.550;9.108;2023-09-30T01:22:57;9.43;;;5.77;;
18360;SDS011;9308;48.550;9.108;2023-09-30T01:25:23;10.50;;;5.73;;
18360;SDS011;9308;48.550;9.108;2023-09-30T01:27:49;8.60;;;5.73;;
18360;SDS011;9308;48.550;9.108;2023-09-30T01:30:16;9.23;;;5.47;;
18360;SDS011;9308;48.550;9.108;2023-09-30T01:32:43;11.30;;;6.13;;
18360;SDS011;9308;48.550;9.108;2023-09-30T01:35:08;7.70;;;5.50;;
18360;SDS011;9308;48.550;9.108;2023-09-30T01:37:34;7.20;;;5.10;;
18360;SDS011;9308;48.550;9.108;2023-09-30T01:40:00;8.23;;;5.43;;
18360;SDS011;9308;48.550;9.108;2023-09-30T01:42:25;6.60;;;4.70;;
18360;SDS011;9308;48.550;9.108;2023-09-30T01:44:51;8.77;;;5.23;;
18360;SDS011;9308;48.550;9.108;2023-09-30T01:47:16;8.57;;;5.37;;
18360;SDS011;9308;48.550;9.108;2023-09-30T01:49:41;6.30;;;4.63;;
18360;SDS011;9308;48.550;9.108;2023-09-30T01:52:06;7.07;;;5.17;;
18360;SDS011;9308;48.550;9.108;2023-09-30T01:54:32;7.73;;;5.03;;
18360;SDS011;9308;48.550;9.108;2023-09-30T01:56:57;7.03;;;4.83;;
18360;SDS011;9308;48.550;9.108;2023-09-30T01:59:23;8.60;;;5.00;;
18360;SDS011;9308;48.550;9.108;2023-09-30T02:01:49;9.10;;;4.83;;
18360;SDS011;9308;48.550;9.108;2023-09-30T02:04:14;8.43;;;5.60;;
18360;SDS011;9308;48.550;9.108;2023-09-30T02:06:42;8.43;;;4.97;;
18360;SDS011;9308;48.550;9.108;2023-09-30T02:09:08;7.27;;;4.53;;
18360;SDS011;9308;48.550;9.108;2023-09-30T02:11:34;7.60;;;5.50;;
18360;SDS011;9308;48.550;9.108;2023-09-30T02:14:03;7.70;;;4.87;;
18360;SDS011;9308;48.550;9.108;2023-09-30T02:16:29;5.30;;;4.03;;
18360;SDS011;9308;48.550;9.108;2023-09-30T02:18:54;6.83;;;5.00;;
18360;SDS011;9308;48.550;9.108;2023-09-30T02:21:20;8.60;;;4.83;;
18360;SDS011;9308;48.550;9.108;2023-09-30T02:23:47;7.63;;;5.10;;
18360;SDS011;9308;48.550;9.108;2023-09-30T02:26:15;9.90;;;5.27;;
18360;SDS011;9308;48.550;9.108;2023-09-30T02:28:41;8.67;;;5.73;;
18360;SDS011;9308;48.550;9.108;2023-09-30T02:31:06;7.53;;;4.87;;
18360;SDS011;9308;48.550;9.108;2023-09-30T02:33:32;9.80;;;4.83;;
18360;SDS011;9308;48.550;9.108;2023-09-30T02:36:00;8.20;;;4.57;;
18360;SDS011;9308;48.550;9.108;2023-09-30T02:38:26;7.70;;;4.93;;
18360;SDS011;9308;48.550;9.108;2023-09-30T02:40:51;9.47;;;5.40;;
18360;SDS011;9308;48.550;9.108;2023-09-30T02:43:16;6.43;;;4.53;;
18360;SDS011;9308;48.550;9.108;2023-09-30T02:45:42;6.90;;;4.63;;
18360;SDS011;9308;48.550;9.108;2023-09-30T02:48:08;9.17;;;4.67;;
18360;SDS011;9308;48.550;9.108;2023-09-30T02:50:34;8.00;;;4.50;;
18360;SDS011;9308;48.550;9.108;2023-09-30T02:52:59;6.80;;;4.80;;
18360;SDS011;9308;48.550;9.108;2023-09-30T02:55:25;9.40;;;4.70;;
18360;SDS011;9308;48.550;9.108;2023-09-30T02:57:50;7.00;;;4.03;;
18360;SDS011;9308;48.550;9.108;2023-09-30T03:00:15;6.17;;;3.97;;
18360;SDS011;9308;48.550;9.108;2023-09-30T03:02:54;5.70;;;3.87;;
18360;SDS011;9308;48.550;9.108;2023-09-30T03:05:20;6.80;;;4.10;;
18360;SDS011;9308;48.550;9.108;2023-09-30T03:07:47;7.73;;;4.23;;
18360;SDS011;9308;48.550;9.108;2023-09-30T03:10:12;7.30;;;4.80;;
18360;SDS011;9308;48.550;9.108;2023-09-30T03:12:39;6.67;;;4.10;;
18360;SDS011;9308;48.550;9.108;2023-09-30T03:15:04;6.20;;;4.20;;
18360;SDS011;9308;48.550;9.108;2023-09-30T03:17:30;6.40;;;3.60;;
18360;SDS011;9308;48.550;9.108;2023-09-30T03:19:57;5.00;;;4.27;;
18360;SDS011;9308;48.550;9.108;2023-09-30T03:22:23;6.17;;;4.10;;
18360;SDS011;9308;48.550;9.108;2023-09-30T03:24:48;6.77;;;4.20;;
18360;SDS011;9308;48.550;9.108;2023-09-30T03:27:14;6.90;;;4.20;;
18360;SDS011;9308;48.550;9.108;2023-09-30T03:29:40;5.77;;;4.03;;
18360;SDS011;9308;48.550;9.108;2023-09-30T03:32:06;6.87;;;4.07;;
18360;SDS011;9308;48.550;9.108;2023-09-30T03:34:31;5.23;;;3.50;;
18360;SDS011;9308;48.550;9.108;2023-09-30T03:36:56;4.67;;;3.70;;
18360;SDS011;9308;48.550;9.108;2023-09-30T03:39:24;4.80;;;3.70;;
18360;SDS011;9308;48.550;9.108;2023-09-30T03:41:53;6.40;;;4.37;;
18360;SDS011;9308;48.550;9.108;2023-09-30T03:44:22;5.97;;;3.40;;
18360;SDS011;9308;48.550;9.108;2023-09-30T03:46:48;6.10;;;4.23;;
18360;SDS011;9308;48.550;9.108;2023-09-30T03:49:14;8.40;;;4.00;;
18360;SDS011;9308;48.550;9.108;2023-09-30T03:51:40;6.03;;;3.97;;
18360;SDS011;9308;48.550;9.108;2023-09-30T03:54:06;5.67;;;3.83;;
18360;SDS011;9308;48.550;9.108;2023-09-30T03:56:33;4.97;;;3.60;;
18360;SDS011;9308;48.550;9.108;2023-09-30T03:58:59;6.17;;;4.70;;
18360;SDS011;9308;48.550;9.108;2023-09-30T04:01:24;7.27;;;4.17;;
18360;SDS011;9308;48.550;9.108;2023-09-30T04:03:51;5.30;;;4.30;;
18360;SDS011;9308;48.550;9.108;2023-09-30T04:06:19;5.00;;;3.53;;
18360;SDS011;9308;48.550;9.108;2023-09-30T04:08:45;7.27;;;4.17;;
18360;SDS011;9308;48.550;9.108;2023-09-30T04:11:10;5.67;;;4.17;;
18360;SDS011;9308;48.550;9.108;2023-09-30T04:13:39;6.33;;;4.20;;
18360;SDS011;9308;48.550;9.108;2023-09-30T04:16:05;5.57;;;4.10;;
18360;SDS011;9308;48.550;9.108;2023-09-30T04:18:30;7.40;;;4.40;;
18360;SDS011;9308;48.550;9.108;2023-09-30T04:20:55;6.83;;;4.50;;
18360;SDS011;9308;48.550;9.108;2023-09-30T04:23:21;5.43;;;3.83;;
18360;SDS011;9308;48.550;9.108;2023-09-30T04:25:47;6.20;;;4.20;;
18360;SDS011;9308;48.550;9.108;2023-09-30T04:28:13;5.57;;;4.40;;
18360;SDS011;9308;48.550;9.108;2023-09-30T04:30:39;8.10;;;4.13;;
18360;SDS011;9308;48.550;9.108;2023-09-30T04:33:05;4.87;;;3.87;;
18360;SDS011;9308;48.550;9.108;2023-09-30T04:35:32;6.77;;;4.50;;
18360;SDS011;9308;48.550;9.108;2023-09-30T04:37:57;4.63;;;3.60;;
18360;SDS011;9308;48.550;9.108;2023-09-30T04:40:26;5.77;;;4.50;;
18360;SDS011;9308;48.550;9.108;2023-09-30T04:42:52;6.17;;;3.70;;
18360;SDS011;9308;48.550;9.108;2023-09-30T04:45:20;7.33;;;4.33;;
18360;SDS011;9308;48.550;9.108;2023-09-30T04:47:45;5.53;;;4.50;;
18360;SDS011;9308;48.550;9.108;2023-09-30T04:50:11;6.20;;;4.10;;
18360;SDS011;9308;48.550;9.108;2023-09-30T04:52:38;6.10;;;4.27;;
18360;SDS011;9308;48.550;9.108;2023-09-30T04:55:05;5.40;;;4.17;;
18360;SDS011;9308;48.550;9.108;2023-09-30T04:57:31;4.97;;;4.10;;
18360;SDS011;9308;48.550;9.108;2023-09-30T04:59:59;6.10;;;3.70;;
18360;SDS011;9308;48.550;9.108;2023-09-30T05:02:25;5.90;;;4.13;;
18360;SDS011;9308;48.550;9.108;2023-09-30T05:04:52;4.83;;;3.90;;
18360;SDS011;9308;48.550;9.108;2023-09-30T05:07:19;6.20;;;3.90;;
18360;SDS011;9308;48.550;9.108;2023-09-30T05:09:46;5.73;;;4.00;;
18360;SDS011;9308;48.550;9.108;2023-09-30T05:12:11;5.10;;;4.10;;
18360;SDS011;9308;48.550;9.108;2023-09-30T05:14:37;5.83;;;3.70;;
18360;SDS011;9308;48.550;9.108;2023-09-30T05:17:03;6.50;;;4.10;;
18360;SDS011;9308;48.550;9.108;2023-09-30T05:19:30;5.63;;;3.73;;
18360;SDS011;9308;48.550;9.108;2023-09-30T05:21:57;8.10;;;4.00;;
18360;SDS011;9308;48.550;9.108;2023-09-30T05:24:22;6.63;;;4.70;;
18360;SDS011;9308;48.550;9.108;2023-09-30T05:26:48;6.00;;;4.33;;
18360;SDS011;9308;48.550;9.108;2023-09-30T05:29:13;7.70;;;4.53;;
18360;SDS011;9308;48.550;9.108;2023-09-30T05:31:38;6.17;;;3.93;;
18360;SDS011;9308;48.550;9.108;2023-09-30T05:34:04;6.40;;;4.67;;
18360;SDS011;9308;48.550;9.108;2023-09-30T05:36:29;10.03;;;4.60;;
18360;SDS011;9308;48.550;9.108;2023-09-30T05:38:55;5.50;;;4.10;;
18360;SDS011;9308;48.550;9.108;2023-09-30T05:41:23;6.30;;;4.30;;
18360;SDS011;9308;48.550;9.108;2023-09-30T05:43:49;6.83;;;3.70;;
18360;SDS011;9308;48.550;9.108;2023-09-30T05:46:15;5.50;;;3.73;;
18360;SDS011;9308;48.550;9.108;2023-09-30T05:48:41;7.67;;;4.17;;
18360;SDS011;9308;48.550;9.108;2023-09-30T05:51:06;4.93;;;4.00;;
18360;SDS011;9308;48.550;9.108;2023-09-30T05:53:32;6.47;;;4.20;;
18360;SDS011;9308;48.550;9.108;2023-09-30T05:55:58;7.80;;;3.87;;
18360;SDS011;9308;48.550;9.108;2023-09-30T05:58:24;7.07;;;4.53;;
18360;SDS011;9308;48.550;9.108;2023-09-30T06:00:50;5.90;;;3.80;;
18360;SDS011;9308;48.550;9.108;2023-09-30T06:03:16;7.60;;;4.20;;
18360;SDS011;9308;48.550;9.108;2023-09-30T06:05:41;5.77;;;4.10;;
18360;SDS011;9308;48.550;9.108;2023-09-30T06:08:08;7.90;;;4.60;;
18360;SDS011;9308;48.550;9.108;2023-09-30T06:10:35;5.53;;;4.67;;
18360;SDS011;9308;48.550;9.108;2023-09-30T06:13:03;4.93;;;4.20;;
18360;SDS011;9308;48.550;9.108;2023-09-30T06:15:28;6.80;;;4.83;;
18360;SDS011;9308;48.550;9.108;2023-09-30T06:17:54;5.07;;;4.57;;
18360;SDS011;9308;48.550;9.108;2023-09-30T06:20:20;7.73;;;4.37;;
18360;SDS011;9308;48.550;9.108;2023-09-30T06:22:47;6.37;;;4.83;;
18360;SDS011;9308;48.550;9.108;2023-09-30T06:25:16;5.20;;;4.70;;
18360;SDS011;9308;48.550;9.108;2023-09-30T06:27:43;5.10;;;4.10;;
18360;SDS011;9308;48.550;9.108;2023-09-30T06:30:12;4.53;;;4.03;;
18360;SDS011;9308;48.550;9.108;2023-09-30T06:32:38;8.07;;;4.70;;
18360;SDS011;9308;48.550;9.108;2023-09-30T06:35:05;7.40;;;5.00;;
18360;SDS011;9308;48.550;9.108;2023-09-30T06:37:31;4.93;;;4.40;;
18360;SDS011;9308;48.550;9.108;2023-09-30T06:39:57;7.23;;;4.70;;
18360;SDS011;9308;48.550;9.108;2023-09-30T06:42:24;6.93;;;5.00;;
18360;SDS011;9308;48.550;9.108;2023-09-30T06:44:49;6.97;;;4.50;;
18360;SDS011;9308;48.550;9.108;2023-09-30T06:47:15;5.27;;;4.63;;
18360;SDS011;9308;48.550;9.108;2023-09-30T06:49:41;6.23;;;4.90;;
18360;SDS011;9308;48.550;9.108;2023-09-30T06:52:06;5.70;;;4.60;;
18360;SDS011;9308;48.550;9.108;2023-09-30T06:54:32;5.70;;;5.10;;
18360;SDS011;9308;48.550;9.108;2023-09-30T06:56:57;6.80;;;4.20;;
18360;SDS011;9308;48.550;9.108;2023-09-30T06:59:23;5.83;;;4.93;;
18360;SDS011;9308;48.550;9.108;2023-09-30T07:01:50;5.10;;;4.60;;
18360;SDS011;9308;48.550;9.108;2023-09-30T07:04:15;8.13;;;4.80;;
18360;SDS011;9308;48.550;9.108;2023-09-30T07:06:41;6.03;;;4.73;;
18360;SDS011;9308;48.550;9.108;2023-09-30T07:09:06;8.90;;;5.37;;
18360;SDS011;9308;48.550;9.108;2023-09-30T07:11:31;6.87;;;4.77;;
18360;SDS011;9308;48.550;9.108;2023-09-30T07:13:59;8.90;;;5.90;;
18360;SDS011;9308;48.550;9.108;2023-09-30T07:16:25;5.43;;;4.83;;
18360;SDS011;9308;48.550;9.108;2023-09-30T07:18:50;7.70;;;5.57;;
18360;SDS011;9308;48.550;9.108;2023-09-30T07:21:16;7.30;;;5.40;;
18360;SDS011;9308;48.550;9.108;2023-09-30T07:23:41;5.67;;;4.77;;
18360;SDS011;9308;48.550;9.108;2023-09-30T07:26:07;8.07;;;5.90;;
18360;SDS011;9308;48.550;9.108;2023-09-30T07:28:33;7.20;;;4.60;;
18360;SDS011;9308;48.550;9.108;2023-09-30T07:30:58;6.77;;;4.87;;
18360;SDS011;9308;48.550;9.108;2023-09-30T07:33:24;6.17;;;4.70;;
18360;SDS011;9308;48.550;9.108;2023-09-30T07:35:49;7.97;;;5.20;;
18360;SDS011;9308;48.550;9.108;2023-09-30T07:38:14;7.80;;;5.07;;
18360;SDS011;9308;48.550;9.108;2023-09-30T07:40:40;4.90;;;4.40;;
18360;SDS011;9308;48.550;9.108;2023-09-30T07:43:05;5.77;;;4.80;;
18360;SDS011;9308;48.550;9.108;2023-09-30T07:45:30;6.07;;;4.87;;
18360;SDS011;9308;48.550;9.108;2023-09-30T07:47:56;8.50;;;5.50;;
18360;SDS011;9308;48.550;9.108;2023-09-30T07:50:23;5.63;;;4.97;;
18360;SDS011;9308;48.550;9.108;2023-09-30T07:52:48;6.57;;;5.10;;
18360;SDS011;9308;48.550;9.108;2023-09-30T07:55:14;7.10;;;4.67;;
18360;SDS011;9308;48.550;9.108;2023-09-30T07:57:40;5.70;;;4.90;;
18360;SDS011;9308;48.550;9.108;2023-09-30T08:00:07;7.83;;;5.10;;
18360;SDS011;9308;48.550;9.108;2023-09-30T08:02:33;5.87;;;5.10;;
18360;SDS011;9308;48.550;9.108;2023-09-30T08:04:59;6.50;;;4.97;;
18360;SDS011;9308;48.550;9.108;2023-09-30T08:07:25;6.90;;;5.30;;
18360;SDS011;9308;48.550;9.108;2023-09-30T08:09:50;5.63;;;4.50;;
18360;SDS011;9308;48.550;9.108;2023-09-30T08:12:16;6.50;;;5.43;;
18360;SDS011;9308;48.550;9.108;2023-09-30T08:14:41;5.23;;;4.30;;
18360;SDS011;9308;48.550;9.108;2023-09-30T08:17:09;5.60;;;4.67;;
18360;SDS011;9308;48.550;9.108;2023-09-30T08:19:35;7.00;;;5.40;;
18360;SDS011;9308;48.550;9.108;2023-09-30T08:22:00;6.07;;;5.47;;
18360;SDS011;9308;48.550;9.108;2023-09-30T08:24:28;5.67;;;4.67;;
18360;SDS011;9308;48.550;9.108;2023-09-30T08:26:56;6.90;;;5.47;;
18360;SDS011;9308;48.550;9.108;2023-09-30T08:29:21;5.73;;;4.90;;
18360;SDS011;9308;48.550;9.108;2023-09-30T08:31:47;5.40;;;4.77;;
18360;SDS011;9308;48.550;9.108;2023-09-30T08:34:12;6.30;;;5.33;;
18360;SDS011;9308;48.550;9.108;2023-09-30T08:36:39;6.10;;;5.30;;
18360;SDS011;9308;48.550;9.108;2023-09-30T08:39:06;6.00;;;5.40;;
18360;SDS011;9308;48.550;9.108;2023-09-30T08:41:33;5.80;;;5.20;;
18360;SDS011;9308;48.550;9.108;2023-09-30T08:43:59;6.03;;;5.00;;
18360;SDS011;9308;48.550;9.108;2023-09-30T08:46:28;6.43;;;5.03;;
18360;SDS011;9308;48.550;9.108;2023-09-30T08:49:02;8.07;;;5.70;;
18360;SDS011;9308;48.550;9.108;2023-09-30T08:51:29;6.33;;;4.57;;
18360;SDS011;9308;48.550;9.108;2023-09-30T08:53:55;5.30;;;4.80;;
18360;SDS011;9308;48.550;9.108;2023-09-30T08:56:24;6.80;;;5.30;;
18360;SDS011;9308;48.550;9.108;2023-09-30T08:58:51;7.20;;;5.27;;
18360;SDS011;9308;48.550;9.108;2023-09-30T09:01:18;6.10;;;4.70;;
18360;SDS011;9308;48.550;9.108;2023-09-30T09:03:43;5.17;;;4.67;;
18360;SDS011;9308;48.550;9.108;2023-09-30T09:06:08;6.50;;;5.03;;
18360;SDS011;9308;48.550;9.108;2023-09-30T09:08:34;7.97;;;5.70;;
18360;SDS011;9308;48.550;9.108;2023-09-30T09:10:59;7.47;;;5.13;;
18360;SDS011;9308;48.550;9.108;2023-09-30T09:13:26;5.87;;;5.27;;
18360;SDS011;9308;48.550;9.108;2023-09-30T09:16:10;7.27;;;5.03;;
18360;SDS011;9308;48.550;9.108;2023-09-30T09:18:36;5.50;;;4.77;;
18360;SDS011;9308;48.550;9.108;2023-09-30T09:21:11;6.57;;;5.00;;
18360;SDS011;9308;48.550;9.108;2023-09-30T09:23:41;8.53;;;5.50;;
18360;SDS011;9308;48.550;9.108;2023-09-30T09:26:09;5.50;;;4.17;;
18360;SDS011;9308;48.550;9.108;2023-09-30T09:28:35;7.10;;;5.10;;
18360;SDS011;9308;48.550;9.108;2023-09-30T09:31:01;6.50;;;5.10;;
18360;SDS011;9308;48.550;9.108;2023-09-30T09:33:36;5.90;;;4.57;;
18360;SDS011;9308;48.550;9.108;2023-09-30T09:36:04;6.93;;;5.20;;
18360;SDS011;9308;48.550;9.108;2023-09-30T09:38:43;7.40;;;5.37;;
18360;SDS011;9308;48.550;9.108;2023-09-30T09:41:13;6.23;;;5.30;;
18360;SDS011;9308;48.550;9.108;2023-09-30T09:43:39;6.00;;;4.23;;
18360;SDS011;9308;48.550;9.108;2023-09-30T09:46:07;7.87;;;5.00;;
18360;SDS011;9308;48.550;9.108;2023-09-30T09:48:36;7.87;;;4.63;;
18360;SDS011;9308;48.550;9.108;2023-09-30T09:51:02;7.17;;;5.10;;
18360;SDS011;9308;48.550;9.108;2023-09-30T09:53:30;6.97;;;5.33;;
18360;SDS011;9308;48.550;9.108;2023-09-30T09:55:59;7.67;;;5.30;;
18360;SDS011;9308;48.550;9.108;2023-09-30T09:58:24;6.00;;;4.77;;
18360;SDS011;9308;48.550;9.108;2023-09-30T10:00:51;10.37;;;5.23;;
18360;SDS011;9308;48.550;9.108;2023-09-30T10:03:18;6.07;;;5.00;;
18360;SDS011;9308;48.550;9.108;2023-09-30T10:05:44;6.17;;;5.20;;
18360;SDS011;9308;48.550;9.108;2023-09-30T10:08:14;7.00;;;5.53;;
18360;SDS011;9308;48.550;9.108;2023-09-30T10:10:42;7.53;;;5.03;;
18360;SDS011;9308;48.550;9.108;2023-09-30T10:13:09;8.53;;;5.30;;
18360;SDS011;9308;48.550;9.108;2023-09-30T10:15:35;7.27;;;5.53;;
18360;SDS011;9308;48.550;9.108;2023-09-30T10:18:06;7.10;;;5.00;;
18360;SDS011;9308;48.550;9.108;2023-09-30T10:20:35;9.80;;;6.20;;
18360;SDS011;9308;48.550;9.108;2023-09-30T10:25:43;5.77;;;5.23;;
18360;SDS011;9308;48.550;9.108;2023-09-30T10:31:12;8.37;;;6.27;;
18360;SDS011;9308;48.550;9.108;2023-09-30T10:36:34;8.40;;;5.97;;
18360;SDS011;9308;48.550;9.108;2023-09-30T10:39:03;8.67;;;5.73;;
18360;SDS011;9308;48.550;9.108;2023-09-30T10:46:47;9.67;;;6.57;;
18360;SDS011;9308;48.550;9.108;2023-09-30T10:51:47;7.60;;;5.60;;
18360;SDS011;9308;48.550;9.108;2023-09-30T10:54:25;8.33;;;6.10;;
18360;SDS011;9308;48.550;9.108;2023-09-30T10:56:54;8.73;;;5.70;;
18360;SDS011;9308;48.550;9.108;2023-09-30T11:01:47;10.10;;;6.23;;
18360;SDS011;9308;48.550;9.108;2023-09-30T11:04:13;8.13;;;6.17;;
18360;SDS011;9308;48.550;9.108;2023-09-30T11:06:40;6.97;;;5.70;;
18360;SDS011;9308;48.550;9.108;2023-09-30T11:09:06;9.13;;;6.30;;
18360;SDS011;9308;48.550;9.108;2023-09-30T11:14:16;9.00;;;6.90;;
18360;SDS011;9308;48.550;9.108;2023-09-30T11:16:42;9.20;;;6.60;;
18360;SDS011;9308;48.550;9.108;2023-09-30T11:19:11;9.23;;;6.73;;
18360;SDS011;9308;48.550;9.108;2023-09-30T11:21:38;8.33;;;6.77;;
18360;SDS011;9308;48.550;9.108;2023-09-30T11:24:04;10.37;;;6.50;;
18360;SDS011;9308;48.550;9.108;2023-09-30T11:26:31;10.80;;;6.90;;
18360;SDS011;9308;48.550;9.108;2023-09-30T11:29:04;7.57;;;5.40;;
18360;SDS011;9308;48.550;9.108;2023-09-30T11:31:31;8.20;;;6.00;;
18360;SDS011;9308;48.550;9.108;2023-09-30T11:33:59;10.20;;;6.80;;
18360;SDS011;9308;48.550;9.108;2023-09-30T11:36:28;7.73;;;5.70;;
18360;SDS011;9308;48.550;9.108;2023-09-30T11:38:55;9.23;;;5.97;;
18360;SDS011;9308;48.550;9.108;2023-09-30T11:41:21;9.00;;;7.20;;
18360;SDS011;9308;48.550;9.108;2023-09-30T11:47:13;7.13;;;5.70;;
18360;SDS011;9308;48.550;9.108;2023-09-30T11:52:07;10.07;;;6.70;;
18360;SDS011;9308;48.550;9.108;2023-09-30T11:54:35;7.20;;;5.80;;
18360;SDS011;9308;48.550;9.108;2023-09-30T11:57:06;8.63;;;6.33;;
18360;SDS011;9308;48.550;9.108;2023-09-30T11:59:34;7.37;;;5.43;;
18360;SDS011;9308;48.550;9.108;2023-09-30T12:02:01;8.70;;;6.40;;
18360;SDS011;9308;48.550;9.108;2023-09-30T12:04:28;8.03;;;6.40;;
18360;SDS011;9308;48.550;9.108;2023-09-30T12:06:54;8.30;;;6.33;;
18360;SDS011;9308;48.550;9.108;2023-09-30T12:09:20;8.80;;;7.00;;
18360;SDS011;9308;48.550;9.108;2023-09-30T12:11:50;8.90;;;6.40;;
18360;SDS011;9308;48.550;9.108;2023-09-30T12:14:16;9.70;;;5.73;;
18360;SDS011;9308;48.550;9.108;2023-09-30T12:16:41;8.70;;;6.53;;
18360;SDS011;9308;48.550;9.108;2023-09-30T12:19:09;9.33;;;6.40;;
18360;SDS011;9308;48.550;9.108;2023-09-30T12:21:35;7.80;;;5.80;;
18360;SDS011;9308;48.550;9.108;2023-09-30T12:24:01;9.77;;;6.30;;
18360;SDS011;9308;48.550;9.108;2023-09-30T12:26:28;9.13;;;6.50;;
18360;SDS011;9308;48.550;9.108;2023-09-30T12:28:55;10.80;;;7.33;;
18360;SDS011;9308;48.550;9.108;2023-09-30T12:31:20;10.20;;;6.53;;
18360;SDS011;9308;48.550;9.108;2023-09-30T12:33:48;8.07;;;6.10;;
18360;SDS011;9308;48.550;9.108;2023-09-30T12:36:15;9.90;;;7.10;;
18360;SDS011;9308;48.550;9.108;2023-09-30T12:38:41;10.30;;;6.87;;
18360;SDS011;9308;48.550;9.108;2023-09-30T12:41:07;9.33;;;7.23;;
18360;SDS011;9308;48.550;9.108;2023-09-30T12:43:33;9.47;;;6.47;;
18360;SDS011;9308;48.550;9.108;2023-09-30T12:45:58;8.97;;;6.43;;
18360;SDS011;9308;48.550;9.108;2023-09-30T12:48:24;8.90;;;6.33;;
18360;SDS011;9308;48.550;9.108;2023-09-30T12:50:50;7.63;;;6.20;;
18360;SDS011;9308;48.550;9.108;2023-09-30T12:53:15;9.60;;;7.07;;
18360;SDS011;9308;48.550;9.108;2023-09-30T12:55:40;8.13;;;6.23;;
18360;SDS011;9308;48.550;9.108;2023-09-30T12:58:06;8.77;;;6.57;;
18360;SDS011;9308;48.550;9.108;2023-09-30T13:00:31;7.93;;;5.83;;
18360;SDS011;9308;48.550;9.108;2023-09-30T13:02:57;7.07;;;5.97;;
18360;SDS011;9308;48.550;9.108;2023-09-30T13:05:23;7.77;;;5.90;;
18360;SDS011;9308;48.550;9.108;2023-09-30T13:07:50;10.00;;;6.63;;
18360;SDS011;9308;48.550;9.108;2023-09-30T13:10:15;10.40;;;7.03;;
18360;SDS011;9308;48.550;9.108;2023-09-30T13:12:40;9.13;;;6.60;;
18360;SDS011;9308;48.550;9.108;2023-09-30T13:15:06;8.60;;;6.53;;
18360;SDS011;9308;48.550;9.108;2023-09-30T13:17:33;10.57;;;6.70;;
18360;SDS011;9308;48.550;9.108;2023-09-30T13:19:59;8.90;;;6.50;;
18360;SDS011;9308;48.550;9.108;2023-09-30T13:22:24;7.90;;;5.93;;
18360;SDS011;9308;48.550;9.108;2023-09-30T13:24:50;7.90;;;6.40;;
18360;SDS011;9308;48.550;9.108;2023-09-30T13:27:16;11.93;;;6.43;;
18360;SDS011;9308;48.550;9.108;2023-09-30T13:29:41;9.57;;;6.80;;
18360;SDS011;9308;48.550;9.108;2023-09-30T13:32:09;8.53;;;6.47;;
18360;SDS011;9308;48.550;9.108;2023-09-30T13:34:35;7.93;;;6.40;;
18360;SDS011;9308;48.550;9.108;2023-09-30T13:37:00;8.27;;;6.20;;
18360;SDS011;9308;48.550;9.108;2023-09-30T13:39:26;9.13;;;6.50;;
18360;SDS011;9308;48.550;9.108;2023-09-30T13:41:51;8.97;;;6.90;;
18360;SDS011;9308;48.550;9.108;2023-09-30T13:44:16;7.93;;;6.00;;
18360;SDS011;9308;48.550;9.108;2023-09-30T13:46:43;8.50;;;6.33;;
18360;SDS011;9308;48.550;9.108;2023-09-30T13:49:08;7.40;;;5.47;;
18360;SDS011;9308;48.550;9.108;2023-09-30T13:51:34;8.13;;;6.33;;
18360;SDS011;9308;48.550;9.108;2023-09-30T13:53:59;14.20;;;6.90;;
18360;SDS011;9308;48.550;9.108;2023-09-30T13:56:24;10.80;;;6.73;;
18360;SDS011;9308;48.550;9.108;2023-09-30T13:58:50;7.50;;;6.40;;
18360;SDS011;9308;48.550;9.108;2023-09-30T14:01:15;10.00;;;6.83;;
18360;SDS011;9308;48.550;9.108;2023-09-30T14:03:41;10.60;;;6.20;;
18360;SDS011;9308;48.550;9.108;2023-09-30T14:06:10;9.40;;;6.50;;
18360;SDS011;9308;48.550;9.108;2023-09-30T14:08:37;8.37;;;5.90;;
18360;SDS011;9308;48.550;9.108;2023-09-30T14:11:02;10.33;;;6.70;;
18360;SDS011;9308;48.550;9.108;2023-09-30T14:13:28;11.23;;;7.03;;
18360;SDS011;9308;48.550;9.108;2023-09-30T14:15:53;8.07;;;5.77;;
18360;SDS011;9308;48.550;9.108;2023-09-30T14:18:18;9.70;;;5.90;;
18360;SDS011;9308;48.550;9.108;2023-09-30T14:20:44;8.30;;;6.20;;
18360;SDS011;9308;48.550;9.108;2023-09-30T14:23:10;11.90;;;6.73;;
18360;SDS011;9308;48.550;9.108;2023-09-30T14:25:45;11.03;;;7.17;;
18360;SDS011;9308;48.550;9.108;2023-09-30T14:28:10;8.30;;;6.20;;
18360;SDS011;9308;48.550;9.108;2023-09-30T14:30:36;9.00;;;6.50;;
18360;SDS011;9308;48.550;9.108;2023-09-30T14:33:01;8.90;;;6.40;;
18360;SDS011;9308;48.550;9.108;2023-09-30T14:35:28;8.07;;;6.30;;
18360;SDS011;9308;48.550;9.108;2023-09-30T14:37:53;7.57;;;5.40;;
18360;SDS011;9308;48.550;9.108;2023-09-30T14:40:19;7.87;;;6.13;;
18360;SDS011;9308;48.550;9.108;2023-09-30T14:42:48;8.50;;;6.40;;
18360;SDS011;9308;48.550;9.108;2023-09-30T14:45:30;7.83;;;6.00;;
18360;SDS011;9308;48.550;9.108;2023-09-30T14:47:59;8.67;;;6.90;;
18360;SDS011;9308;48.550;9.108;2023-09-30T14:50:36;9.33;;;6.80;;
18360;SDS011;9308;48.550;9.108;2023-09-30T14:53:02;8.07;;;6.43;;
18360;SDS011;9308;48.550;9.108;2023-09-30T14:55:28;9.63;;;6.57;;
18360;SDS011;9308;48.550;9.108;2023-09-30T14:57:54;10.00;;;6.37;;
18360;SDS011;9308;48.550;9.108;2023-09-30T15:00:20;6.60;;;5.70;;
18360;SDS011;9308;48.550;9.108;2023-09-30T15:02:49;9.40;;;5.90;;
18360;SDS011;9308;48.550;9.108;2023-09-30T15:05:15;9.10;;;6.33;;
18360;SDS011;9308;48.550;9.108;2023-09-30T15:07:40;9.57;;;5.80;;
18360;SDS011;9308;48.550;9.108;2023-09-30T15:10:06;14.57;;;7.30;;
18360;SDS011;9308;48.550;9.108;2023-09-30T15:12:32;8.40;;;5.80;;
18360;SDS011;9308;48.550;9.108;2023-09-30T15:14:57;9.30;;;6.17;;
18360;SDS011;9308;48.550;9.108;2023-09-30T15:17:22;8.93;;;5.93;;
18360;SDS011;9308;48.550;9.108;2023-09-30T15:19:48;8.83;;;5.73;;
18360;SDS011;9308;48.550;9.108;2023-09-30T15:22:16;8.67;;;6.50;;
18360;SDS011;9308;48.550;9.108;2023-09-30T15:24:45;9.00;;;6.10;;